Time,TemperatureF,DewpointF,PressureIn,WindDirection,WindDirectionDegrees,WindSpeedMPH,WindSpeedGustMPH,Humidity,HourlyPrecipIn,Conditions,Clouds,dailyrainin,SoftwareType,DateUTC
2013-03-19 00:05:00,37.1,34.0,29.81,North,4,7.0,15.0,89,0.01,,,0.12,weatherlink.com 1.10,2013-03-19 04:05:00,
2013-03-19 00:20:00,34.9,31.0,29.82,NNW,328,5.0,11.0,87,0.01,,,0.00,weatherlink.com 1.10,2013-03-19 04:20:00,
2013-03-19 00:35:00,33.5,30.0,29.82,South,174,1.0,11.0,87,0.01,,,0.00,weatherlink.com 1.10,2013-03-19 04:35:00,
2013-03-19 00:50:00,33.1,30.0,29.83,WNW,297,1.0,7.0,88,0.01,,,0.00,weatherlink.com 1.10,2013-03-19 04:50:00,
2013-03-19 01:05:00,32.2,29.0,29.83,WNW,283,2.0,10.0,86,0.00,,,0.00,weatherlink.com 1.10,2013-03-19 05:05:00,
2013-03-19 01:20:00,31.4,28.0,29.83,NNW,328,7.0,13.0,87,0.00,,,0.00,weatherlink.com 1.10,2013-03-19 05:20:00,
2013-03-19 01:35:00,31.1,27.0,29.82,WNW,288,5.0,10.0,84,0.00,,,0.00,weatherlink.com 1.10,2013-03-19 05:35:00,
2013-03-19 01:50:00,30.4,26.0,29.83,West,264,5.0,-999.0,82,-99.99,,,0.00,weatherlink.com 1.10,2013-03-19 05:50:00,
2013-03-19 02:05:00,29.5,24.0,29.84,NE,47,12.0,16.0,80,0.00,,,0.00,weatherlink.com 1.10,2013-03-19 06:05:00,
2013-03-19 02:20:00,29.1,24.0,29.85,NW,323,8.0,20.0,80,0.00,,,0.00,weatherlink.com 1.10,2013-03-19 06:20:00,
2013-03-19 02:35:00,28.5,23.0,29.85,WNW,297,7.0,14.0,79,0.00,,,0.00,weatherlink.com 1.10,2013-03-19 06:35:00,
2013-03-19 02:50:00,28.2,23.0,29.86,SE,135,4.0,14.0,80,0.00,,,0.00,weatherlink.com 1.10,2013-03-19 06:50:00,
2013-03-19 03:05:00,27.8,21.0,29.87,East,82,3.0,18.0,75,0.00,,,0.00,weatherlink.com 1.10,2013-03-19 07:05:00,
2013-03-19 03:20:00,27.1,21.0,29.88,NE,52,2.0,17.0,77,0.00,,,0.00,weatherlink.com 1.10,2013-03-19 07:20:00,
2013-03-19 03:35:00,26.7,21.0,29.89,West,270,8.0,17.0,78,0.00,,,0.00,weatherlink.com 1.10,2013-03-19 07:35:00,
2013-03-19 03:50:00,26.0,20.0,29.89,WSW,257,5.0,14.0,77,0.00,,,0.00,weatherlink.com 1.10,2013-03-19 07:50:00,
2013-03-19 04:05:00,25.8,20.0,29.89,WSW,257,3.0,11.0,78,0.00,,,0.00,weatherlink.com 1.10,2013-03-19 08:05:00,
2013-03-19 04:20:00,25.6,20.0,29.89,WNW,300,3.0,12.0,78,0.00,,,0.00,weatherlink.com 1.10,2013-03-19 08:20:00,
2013-03-19 04:35:00,25.6,20.0,29.88,NW,316,4.0,13.0,78,0.00,,,0.00,weatherlink.com 1.10,2013-03-19 08:35:00,
2013-03-19 04:50:00,25.5,19.0,29.89,West,279,4.0,12.0,77,0.00,,,0.00,weatherlink.com 1.10,2013-03-19 08:50:00,
2013-03-19 05:05:00,25.7,20.0,29.88,ENE,57,4.0,12.0,78,0.00,,,0.00,weatherlink.com 1.10,2013-03-19 09:05:00,
2013-03-19 05:21:00,25.9,20.0,29.88,WNW,288,8.0,13.0,79,0.00,,,0.00,weatherlink.com 1.10,2013-03-19 09:21:00,
2013-03-19 05:36:00,25.8,19.0,29.89,WNW,284,7.0,13.0,76,0.00,,,0.00,weatherlink.com 1.10,2013-03-19 09:36:00,
2013-03-19 05:51:00,25.3,19.0,29.91,ENE,76,4.0,12.0,76,0.00,,,0.00,weatherlink.com 1.10,2013-03-19 09:51:00,
2013-03-19 06:06:00,25.3,19.0,29.91,West,264,4.0,15.0,76,0.00,,,0.00,weatherlink.com 1.10,2013-03-19 10:06:00,
2013-03-19 06:37:00,25.6,19.0,29.91,North,349,5.0,22.0,76,0.00,,,0.00,weatherlink.com 1.10,2013-03-19 10:37:00,
2013-03-19 07:51:00,25.5,18.0,29.91,North,8,4.0,19.0,74,0.00,,,0.00,weatherlink.com 1.10,2013-03-19 11:51:00,
2013-03-19 08:06:00,25.6,19.0,29.92,West,260,3.0,13.0,77,0.00,,,0.00,weatherlink.com 1.10,2013-03-19 12:06:00,
2013-03-19 08:21:00,25.9,19.0,29.91,NW,307,4.0,10.0,76,0.00,,,0.00,weatherlink.com 1.10,2013-03-19 12:21:00,
2013-03-19 08:36:00,26.1,20.0,29.91,NW,311,4.0,15.0,77,0.00,,,0.00,weatherlink.com 1.10,2013-03-19 12:36:00,
2013-03-19 08:51:00,26.4,20.0,29.91,SSW,210,7.0,16.0,75,0.00,,,0.00,weatherlink.com 1.10,2013-03-19 12:51:00,
2013-03-19 09:06:00,26.7,18.0,29.93,WNW,282,3.0,17.0,71,0.00,,,0.00,weatherlink.com 1.10,2013-03-19 13:06:00,
2013-03-19 09:36:00,28.1,19.0,29.93,NE,45,6.0,14.0,69,0.00,,,0.00,weatherlink.com 1.10,2013-03-19 13:36:00,
2013-03-19 09:51:00,28.6,20.0,29.94,SW,218,6.0,15.0,69,0.00,,,0.00,weatherlink.com 1.10,2013-03-19 13:51:00,
2013-03-19 10:06:00,28.6,20.0,29.94,WNW,285,5.0,13.0,69,0.00,,,0.00,weatherlink.com 1.10,2013-03-19 14:06:00,
2013-03-19 10:21:00,28.3,20.0,29.94,WNW,288,3.0,16.0,71,0.00,,,0.00,weatherlink.com 1.10,2013-03-19 14:21:00,
2013-03-19 10:36:00,29.1,20.0,29.95,SW,214,5.0,15.0,68,0.00,,,0.00,weatherlink.com 1.10,2013-03-19 14:36:00,
2013-03-19 10:51:00,28.5,19.0,29.95,West,271,3.0,17.0,68,0.00,,,0.00,weatherlink.com 1.10,2013-03-19 14:51:00,
2013-03-19 11:06:00,29.9,20.0,29.95,WNW,296,6.0,16.0,66,0.00,,,0.00,weatherlink.com 1.10,2013-03-19 15:06:00,
2013-03-19 11:21:00,29.9,18.0,29.95,West,278,8.0,17.0,62,0.00,,,0.00,weatherlink.com 1.10,2013-03-19 15:21:00,
2013-03-19 11:36:00,30.9,20.0,29.95,ESE,105,6.0,18.0,64,0.00,,,0.00,weatherlink.com 1.10,2013-03-19 15:36:00,
2013-03-19 11:51:00,31.5,20.0,29.96,West,271,7.0,17.0,63,0.00,,,0.00,weatherlink.com 1.10,2013-03-19 15:51:00,
2013-03-19 12:06:00,31.4,20.0,29.97,NW,318,5.0,16.0,63,0.00,,,0.00,weatherlink.com 1.10,2013-03-19 16:06:00,
2013-03-19 12:21:00,31.9,21.0,29.98,NNE,18,13.0,14.0,64,0.00,,,0.00,weatherlink.com 1.10,2013-03-19 16:21:00,
2013-03-19 12:36:00,30.8,19.0,29.99,ENE,73,6.0,19.0,63,0.00,,,0.00,weatherlink.com 1.10,2013-03-19 16:36:00,
2013-03-19 13:06:00,32.9,22.0,29.99,WNW,284,3.0,16.0,64,0.00,,,0.00,weatherlink.com 1.10,2013-03-19 17:06:00,
2013-03-19 13:21:00,33.4,22.0,30.00,WNW,302,10.0,17.0,62,0.00,,,0.00,weatherlink.com 1.10,2013-03-19 17:21:00,
2013-03-19 13:36:00,33.3,21.0,30.00,NW,305,6.0,14.0,62,0.00,,,0.00,weatherlink.com 1.10,2013-03-19 17:36:00,
2013-03-19 13:52:00,33.4,21.0,30.01,NNE,25,8.0,19.0,60,0.00,,,0.00,weatherlink.com 1.10,2013-03-19 17:52:00,
2013-03-19 14:06:00,33.1,21.0,30.01,NE,42,5.0,17.0,61,0.00,,,0.00,weatherlink.com 1.10,2013-03-19 18:06:00,
2013-03-19 14:21:00,35.0,22.0,30.01,West,266,16.0,17.0,60,0.00,,,0.00,weatherlink.com 1.10,2013-03-19 18:21:00,
2013-03-19 14:36:00,35.3,23.0,30.02,NE,53,6.0,19.0,61,0.00,,,0.00,weatherlink.com 1.10,2013-03-19 18:36:00,
2013-03-19 14:51:00,36.4,23.0,30.02,West,267,3.0,20.0,58,0.00,,,0.00,weatherlink.com 1.10,2013-03-19 18:51:00,
2013-03-19 15:06:00,35.8,23.0,30.01,NE,34,6.0,21.0,59,0.00,,,0.00,weatherlink.com 1.10,2013-03-19 19:06:00,
2013-03-19 15:22:00,36.2,22.0,30.02,ENE,72,6.0,21.0,57,0.00,,,0.00,weatherlink.com 1.10,2013-03-19 19:22:00,
2013-03-19 15:37:00,36.3,23.0,30.02,WNW,285,12.0,21.0,58,0.00,,,0.00,weatherlink.com 1.10,2013-03-19 19:37:00,
2013-03-19 16:07:00,36.9,22.0,30.02,SW,222,6.0,19.0,55,0.00,,,0.00,weatherlink.com 1.10,2013-03-19 20:07:00,
2013-03-19 16:22:00,37.6,23.0,30.03,ESE,121,10.0,18.0,55,0.00,,,0.00,weatherlink.com 1.10,2013-03-19 20:22:00,
2013-03-19 16:37:00,38.3,23.0,30.03,West,271,6.0,20.0,54,0.00,,,0.00,weatherlink.com 1.10,2013-03-19 20:37:00,
2013-03-19 16:52:00,38.5,23.0,30.04,NNE,25,11.0,19.0,55,0.00,,,0.00,weatherlink.com 1.10,2013-03-19 20:52:00,
2013-03-19 17:07:00,38.6,22.0,30.03,North,349,5.0,24.0,51,0.00,,,0.00,weatherlink.com 1.10,2013-03-19 21:07:00,
2013-03-19 17:22:00,39.2,23.0,30.04,NNW,336,5.0,17.0,53,0.00,,,0.00,weatherlink.com 1.10,2013-03-19 21:22:00,
2013-03-19 17:37:00,38.8,21.0,30.04,NW,319,3.0,20.0,49,0.00,,,0.00,weatherlink.com 1.10,2013-03-19 21:37:00,
2013-03-19 17:52:00,39.1,21.0,30.05,NNE,20,5.0,16.0,49,0.00,,,0.00,weatherlink.com 1.10,2013-03-19 21:52:00,
2013-03-19 18:07:00,39.2,21.0,30.05,NNW,338,9.0,15.0,49,0.00,,,0.00,weatherlink.com 1.10,2013-03-19 22:07:00,
2013-03-19 18:22:00,39.1,21.0,30.05,SSW,210,8.0,16.0,49,0.00,,,0.00,weatherlink.com 1.10,2013-03-19 22:22:00,
2013-03-19 18:37:00,38.7,21.0,30.05,SSW,211,5.0,15.0,49,0.00,,,0.00,weatherlink.com 1.10,2013-03-19 22:37:00,
2013-03-19 18:52:00,38.5,21.0,30.06,West,274,7.0,13.0,49,0.00,,,0.00,weatherlink.com 1.10,2013-03-19 22:52:00,
2013-03-19 19:07:00,38.0,21.0,30.05,West,274,4.0,15.0,50,0.00,,,0.00,weatherlink.com 1.10,2013-03-19 23:07:00,
2013-03-19 19:22:00,37.1,20.0,30.06,SE,145,6.0,18.0,51,0.00,,,0.00,weatherlink.com 1.10,2013-03-19 23:22:00,
2013-03-19 19:37:00,35.9,21.0,30.06,NW,308,4.0,13.0,54,0.00,,,0.00,weatherlink.com 1.10,2013-03-19 23:37:00,
2013-03-19 19:52:00,35.3,21.0,30.06,NNW,345,5.0,11.0,57,0.00,,,0.00,weatherlink.com 1.10,2013-03-19 23:52:00,
2013-03-19 20:07:00,35.1,21.0,30.06,North,349,2.0,13.0,56,0.00,,,0.00,weatherlink.com 1.10,2013-03-20 00:07:00,
2013-03-19 20:22:00,34.7,21.0,30.07,WNW,287,6.0,13.0,58,0.00,,,0.00,weatherlink.com 1.10,2013-03-20 00:22:00,
2013-03-19 20:37:00,34.3,22.0,30.07,SW,228,2.0,10.0,60,0.00,,,0.00,weatherlink.com 1.10,2013-03-20 00:37:00,
2013-03-19 20:52:00,34.2,22.0,30.07,NW,322,4.0,12.0,61,0.00,,,0.00,weatherlink.com 1.10,2013-03-20 00:52:00,
2013-03-19 21:07:00,34.0,22.0,30.08,West,260,2.0,9.0,61,0.00,,,0.00,weatherlink.com 1.10,2013-03-20 01:07:00,
2013-03-19 21:22:00,33.6,21.0,30.09,WNW,283,3.0,10.0,60,0.00,,,0.00,weatherlink.com 1.10,2013-03-20 01:22:00,
2013-03-19 21:37:00,33.4,21.0,30.09,North,6,2.0,10.0,61,0.00,,,0.00,weatherlink.com 1.10,2013-03-20 01:37:00,
2013-03-19 21:52:00,33.1,22.0,30.10,West,278,2.0,9.0,63,0.00,,,0.00,weatherlink.com 1.10,2013-03-20 01:52:00,
2013-03-19 22:07:00,33.1,22.0,30.09,East,79,3.0,9.0,63,0.00,,,0.00,weatherlink.com 1.10,2013-03-20 02:07:00,
2013-03-19 22:22:00,32.9,22.0,30.09,NE,45,1.0,8.0,64,0.00,,,0.00,weatherlink.com 1.10,2013-03-20 02:22:00,
2013-03-19 22:37:00,32.7,22.0,30.09,West,271,3.0,7.0,65,0.00,,,0.00,weatherlink.com 1.10,2013-03-20 02:37:00,
2013-03-19 22:52:00,32.3,22.0,30.09,SW,225,4.0,8.0,66,0.00,,,0.00,weatherlink.com 1.10,2013-03-20 02:52:00,
2013-03-19 23:07:00,32.2,22.0,30.09,West,263,3.0,7.0,66,0.00,,,0.00,weatherlink.com 1.10,2013-03-20 03:07:00,
2013-03-19 23:22:00,32.0,22.0,30.09,NE,41,2.0,8.0,66,0.00,,,0.00,weatherlink.com 1.10,2013-03-20 03:22:00,
2013-03-19 23:37:00,31.4,22.0,30.09,East,81,1.0,5.0,68,0.00,,,0.00,weatherlink.com 1.10,2013-03-20 03:37:00,
2013-03-19 23:52:00,31.4,22.0,30.09,WNW,290,1.0,8.0,68,0.00,,,0.00,weatherlink.com 1.10,2013-03-20 03:52:00,